Time;durP1;ratioP1;P1;durP2;ratioP2;P2;SDS_P1;SDS_P2;PMS_P1;PMS_P2;Temp;Humidity;BMP_temperature;BMP_pressure;BME280_temperature;BME280_humidity;BME280_pressure;Samples;Min_cycle;Max_cycle;Signal;HPM_P1;HPM_P2
2022/04/06 00:00:13;;;;;;;24.98;11.45;;;6.80;99.90;;;;;;5039803;28;20484;-85
2022/04/06 00:02:40;;;;;;;17.23;10.82;;;6.80;99.90;;;;;;5030476;28;20037;-85
2022/04/06 00:05:10;;;;;;;17.70;10.68;;;6.80;99.90;;;;;;5029608;28;20040;-84
2022/04/06 00:07:39;;;;;;;17.70;10.70;;;6.80;99.90;;;;;;5018411;28;20159;-84
2022/04/06 00:10:06;;;;;;;18.08;10.40;;;6.80;99.90;;;;;;5037763;28;20030;-84
2022/04/06 00:12:31;;;;;;;20.55;11.30;;;6.80;99.90;;;;;;5029476;28;20465;-84
2022/04/06 00:14:57;;;;;;;17.92;10.23;;;6.80;99.90;;;;;;5042075;28;20076;-84
2022/04/06 00:17:23;;;;;;;16.77;10.02;;;6.80;99.90;;;;;;5039307;28;20480;-84
2022/04/06 00:19:48;;;;;;;18.13;10.13;;;6.80;99.90;;;;;;5033208;28;20258;-85
2022/04/06 00:22:14;;;;;;;17.23;10.27;;;6.80;99.90;;;;;;5012843;28;20029;-85
2022/04/06 00:24:40;;;;;;;16.73;10.15;;;6.80;99.90;;;;;;5035217;28;20029;-84
2022/04/06 00:27:05;;;;;;;16.65;10.23;;;6.80;99.90;;;;;;5032976;28;20032;-84
2022/04/06 00:29:31;;;;;;;20.13;10.68;;;6.80;99.90;;;;;;5029685;28;20097;-84
2022/04/06 00:31:57;;;;;;;17.42;10.25;;;6.80;99.90;;;;;;5029007;28;20028;-85
2022/04/06 00:35:28;;;;;;;17.45;10.65;;;6.80;99.90;;;;;;5028758;28;20075;-85
2022/04/06 00:37:08;;;;;;;17.10;9.68;;;6.80;99.90;;;;;;5030145;28;20397;-85
2022/04/06 00:39:34;;;;;;;21.98;10.18;;;6.80;99.90;;;;;;5017138;28;20038;-85
2022/04/06 00:41:59;;;;;;;15.77;10.23;;;6.80;99.90;;;;;;5022332;28;20051;-85
2022/04/06 00:44:27;;;;;;;17.50;10.35;;;6.80;99.90;;;;;;5036122;28;20068;-84
2022/04/06 00:46:53;;;;;;;18.63;10.45;;;6.80;99.90;;;;;;5043933;28;20021;-84
2022/04/06 00:49:19;;;;;;;17.02;10.75;;;6.90;99.90;;;;;;5031616;28;20057;-85
2022/04/06 00:51:47;;;;;;;15.82;10.60;;;6.80;99.90;;;;;;5011646;28;20037;-85
2022/04/06 00:54:18;;;;;;;19.25;10.52;;;6.80;99.90;;;;;;5036921;28;20025;-85
2022/04/06 00:56:45;;;;;;;15.48;9.95;;;6.80;99.90;;;;;;5013904;28;20029;-83
2022/04/06 00:59:12;;;;;;;16.05;9.85;;;6.80;99.90;;;;;;5012993;28;20087;-84
2022/04/06 01:01:38;;;;;;;14.27;9.07;;;6.90;99.90;;;;;;5031917;28;20044;-84
2022/04/06 01:04:04;;;;;;;15.00;9.77;;;6.90;99.90;;;;;;5032312;28;20224;-84
2022/04/06 01:06:29;;;;;;;16.40;9.55;;;6.90;99.90;;;;;;5032461;28;20113;-85
2022/04/06 01:08:55;;;;;;;17.70;9.50;;;6.90;99.90;;;;;;5046247;28;20109;-84
2022/04/06 01:11:21;;;;;;;15.98;9.20;;;7.00;99.90;;;;;;5008997;28;20029;-84
2022/04/06 01:13:47;;;;;;;18.20;8.90;;;6.90;99.90;;;;;;5028548;28;20036;-84
2022/04/06 01:16:14;;;;;;;15.25;9.52;;;6.90;99.90;;;;;;5051686;28;20033;-85
2022/04/06 01:18:41;;;;;;;15.13;8.70;;;6.90;99.90;;;;;;5027995;28;20037;-86
2022/04/06 01:21:07;;;;;;;15.30;8.85;;;6.90;99.90;;;;;;5035192;28;20529;-85
2022/04/06 01:23:33;;;;;;;15.73;9.77;;;7.00;99.90;;;;;;5028584;28;20140;-84
2022/04/06 01:25:59;;;;;;;14.13;8.55;;;6.90;99.90;;;;;;5009298;28;20101;-85
2022/04/06 01:28:24;;;;;;;14.50;9.07;;;6.90;99.90;;;;;;5015309;28;20431;-85
2022/04/06 01:30:50;;;;;;;20.30;9.55;;;6.90;99.90;;;;;;5048035;28;20112;-85
2022/04/06 01:33:16;;;;;;;16.73;8.80;;;6.90;99.90;;;;;;5034117;28;20059;-84
2022/04/06 01:35:42;;;;;;;14.68;8.48;;;6.90;99.90;;;;;;5036779;28;20391;-85
2022/04/06 01:38:08;;;;;;;13.50;8.70;;;6.90;99.90;;;;;;5027497;28;20529;-84
2022/04/06 01:40:34;;;;;;;14.30;8.98;;;6.90;99.90;;;;;;5030348;28;20101;-83
2022/04/06 01:43:00;;;;;;;14.85;9.07;;;6.90;99.90;;;;;;5028930;28;20118;-84
2022/04/06 01:45:25;;;;;;;15.60;9.43;;;6.90;99.90;;;;;;5036276;28;20037;-84
2022/04/06 01:47:51;;;;;;;15.48;9.90;;;6.90;99.90;;;;;;5016216;28;20022;-85
2022/04/06 01:53:03;;;;;;;14.88;8.48;;;6.90;99.90;;;;;;5026060;28;20083;-84
2022/04/06 01:55:29;;;;;;;18.33;9.40;;;6.90;99.90;;;;;;5027778;28;20030;-85
2022/04/06 01:57:56;;;;;;;18.27;9.30;;;6.90;99.90;;;;;;5035458;28;20084;-84
2022/04/06 02:00:21;;;;;;;15.52;9.25;;;6.90;99.90;;;;;;5022954;28;20127;-85
2022/04/06 02:02:50;;;;;;;16.65;9.98;;;6.90;99.90;;;;;;5045341;28;20055;-85
2022/04/06 02:05:17;;;;;;;17.02;10.82;;;6.90;99.90;;;;;;5053439;28;20017;-85
2022/04/06 02:07:46;;;;;;;16.35;9.60;;;6.80;99.90;;;;;;5052934;28;20072;-84
2022/04/06 02:10:12;;;;;;;14.05;9.18;;;6.90;99.90;;;;;;5051336;28;20044;-85
2022/04/06 02:12:38;;;;;;;15.23;9.23;;;6.80;99.90;;;;;;5052611;28;20036;-85
2022/04/06 02:15:05;;;;;;;14.25;9.20;;;6.90;99.90;;;;;;5040635;28;20037;-85
2022/04/06 02:17:31;;;;;;;16.13;9.45;;;6.90;99.90;;;;;;5033513;28;20030;-83
2022/04/06 02:19:57;;;;;;;16.02;9.60;;;6.80;99.90;;;;;;5039523;28;20037;-84
2022/04/06 02:22:23;;;;;;;16.00;10.73;;;6.90;99.90;;;;;;5017756;28;20797;-84
2022/04/06 02:24:49;;;;;;;16.40;9.82;;;6.80;99.90;;;;;;5027074;28;20116;-84
2022/04/06 02:27:14;;;;;;;13.43;8.73;;;6.80;99.90;;;;;;5047032;28;20056;-85
2022/04/06 02:29:40;;;;;;;17.13;9.05;;;6.80;99.90;;;;;;5044524;28;20047;-84
2022/04/06 02:32:08;;;;;;;16.38;9.27;;;6.80;99.90;;;;;;5052372;28;20052;-84
2022/04/06 02:34:34;;;;;;;14.90;9.10;;;6.80;99.90;;;;;;5051105;28;20036;-85
2022/04/06 02:37:00;;;;;;;18.65;10.05;;;6.80;99.90;;;;;;5049420;28;20467;-84
2022/04/06 02:39:25;;;;;;;14.82;9.27;;;6.80;99.90;;;;;;5031195;28;20030;-85
2022/04/06 02:41:51;;;;;;;16.70;10.02;;;6.80;99.90;;;;;;5014103;28;20497;-85
2022/04/06 02:44:17;;;;;;;16.40;9.52;;;6.80;99.90;;;;;;5024824;28;20044;-84
2022/04/06 02:46:44;;;;;;;15.73;9.60;;;6.80;99.90;;;;;;5029842;28;20036;-84
2022/04/06 02:49:10;;;;;;;18.52;10.38;;;6.90;99.90;;;;;;5027629;28;20026;-84
2022/04/06 02:51:36;;;;;;;14.18;9.00;;;6.80;99.90;;;;;;5012084;28;20033;-85
2022/04/06 02:54:01;;;;;;;16.55;8.90;;;6.90;99.90;;;;;;5019145;28;20065;-85
2022/04/06 02:56:28;;;;;;;15.50;8.98;;;6.90;99.90;;;;;;5031281;28;20030;-84
2022/04/06 02:58:54;;;;;;;12.70;7.50;;;6.90;99.90;;;;;;5017074;28;20469;-84
2022/04/06 03:01:20;;;;;;;18.35;9.18;;;6.90;99.90;;;;;;5030789;28;20034;-84
2022/04/06 03:03:46;;;;;;;11.57;7.35;;;6.90;99.90;;;;;;5029221;28;20047;-83
2022/04/06 03:06:12;;;;;;;15.25;9.15;;;6.80;99.90;;;;;;5035451;28;20030;-85
2022/04/06 03:08:37;;;;;;;15.55;9.55;;;6.90;99.90;;;;;;5030143;28;20028;-84
2022/04/06 03:11:03;;;;;;;60.58;30.23;;;6.90;99.90;;;;;;5030198;28;20030;-84
2022/04/06 03:13:29;;;;;;;14.48;8.05;;;6.80;99.90;;;;;;5025042;28;20041;-85
2022/04/06 03:15:56;;;;;;;25.08;9.65;;;6.80;99.90;;;;;;5037740;28;20037;-84
2022/04/06 03:18:21;;;;;;;19.23;9.07;;;6.80;99.90;;;;;;5050457;28;20033;-84
2022/04/06 03:20:48;;;;;;;15.43;9.60;;;6.80;99.90;;;;;;5013947;28;20030;-85
2022/04/06 03:23:15;;;;;;;14.02;7.60;;;6.80;99.90;;;;;;5073063;28;20083;-85
2022/04/06 03:25:41;;;;;;;14.65;8.65;;;6.80;99.90;;;;;;5013149;28;20061;-85
2022/04/06 03:28:07;;;;;;;13.43;8.75;;;6.80;99.90;;;;;;5026463;28;20026;-84
2022/04/06 03:30:33;;;;;;;18.58;10.45;;;6.80;99.90;;;;;;5024188;28;20068;-85
2022/04/06 03:32:59;;;;;;;18.65;9.30;;;6.80;99.90;;;;;;5012956;28;20058;-83
2022/04/06 03:35:24;;;;;;;15.75;9.38;;;6.70;99.90;;;;;;5037201;28;20030;-85
2022/04/06 03:37:51;;;;;;;14.27;9.35;;;6.70;99.90;;;;;;5037642;28;20032;-83
2022/04/06 03:40:16;;;;;;;15.57;8.30;;;6.80;99.90;;;;;;5044658;28;20128;-84
2022/04/06 03:42:42;;;;;;;15.82;9.52;;;6.80;99.90;;;;;;5030658;28;20061;-85
2022/04/06 03:45:09;;;;;;;15.18;8.73;;;6.80;99.90;;;;;;5036428;28;20534;-85
2022/04/06 03:47:35;;;;;;;13.57;8.85;;;6.80;99.90;;;;;;5030925;28;20086;-84
2022/04/06 03:50:02;;;;;;;13.43;8.73;;;6.80;99.90;;;;;;5033486;28;20188;-85
2022/04/06 03:52:28;;;;;;;13.15;8.63;;;6.80;99.90;;;;;;5037209;28;20021;-85
2022/04/06 03:54:54;;;;;;;15.82;9.90;;;6.80;99.90;;;;;;5044112;28;20028;-85
2022/04/06 03:57:20;;;;;;;15.35;9.30;;;6.80;99.90;;;;;;5037179;28;20029;-85
2022/04/06 03:59:46;;;;;;;16.83;8.57;;;6.90;99.90;;;;;;5040053;28;20029;-84
2022/04/06 04:02:12;;;;;;;15.68;8.80;;;6.80;99.90;;;;;;5033779;28;20033;-84
2022/04/06 04:04:37;;;;;;;16.58;9.00;;;6.80;99.90;;;;;;5030127;28;20025;-85
2022/04/06 04:07:06;;;;;;;16.08;9.07;;;6.80;99.90;;;;;;5040563;28;20028;-86
2022/04/06 04:09:33;;;;;;;15.10;8.57;;;6.80;99.90;;;;;;5045844;28;20036;-84
2022/04/06 04:11:59;;;;;;;13.93;8.77;;;6.80;99.90;;;;;;5034299;28;20642;-83
2022/04/06 04:14:25;;;;;;;15.25;9.20;;;6.80;99.90;;;;;;5013995;28;20030;-84
2022/04/06 04:16:50;;;;;;;15.48;9.07;;;6.80;99.90;;;;;;5017748;28;20026;-83
2022/04/06 04:19:16;;;;;;;14.15;8.45;;;6.80;99.90;;;;;;5037979;28;20036;-84
2022/04/06 04:21:43;;;;;;;16.20;10.90;;;6.80;99.90;;;;;;5014667;28;20480;-83
2022/04/06 04:24:09;;;;;;;17.33;10.18;;;6.80;99.90;;;;;;5036586;28;20033;-84
2022/04/06 04:26:36;;;;;;;15.15;9.80;;;6.80;99.90;;;;;;5021568;28;20380;-85
2022/04/06 04:29:03;;;;;;;16.08;10.55;;;6.80;99.90;;;;;;5061800;28;20033;-85
2022/04/06 04:31:29;;;;;;;15.38;8.85;;;6.80;99.90;;;;;;5036178;28;20037;-85
2022/04/06 04:33:55;;;;;;;17.20;9.88;;;6.80;99.90;;;;;;5036929;28;20030;-85
2022/04/06 04:36:21;;;;;;;19.20;10.73;;;6.70;99.90;;;;;;5039171;28;20048;-84
2022/04/06 04:38:47;;;;;;;17.10;10.10;;;6.80;99.90;;;;;;5039755;28;20033;-84
2022/04/06 04:41:13;;;;;;;12.70;8.57;;;6.80;99.90;;;;;;5043079;28;20123;-84
2022/04/06 04:43:39;;;;;;;14.00;9.63;;;6.80;99.90;;;;;;5025849;28;20042;-83
2022/04/06 04:46:05;;;;;;;16.45;9.27;;;6.90;99.90;;;;;;5023177;28;20126;-83
2022/04/06 04:48:31;;;;;;;18.90;9.43;;;6.90;99.90;;;;;;5021616;28;20037;-83
2022/04/06 04:50:57;;;;;;;14.18;9.77;;;6.90;99.90;;;;;;5026799;28;20060;-83
2022/04/06 04:53:23;;;;;;;15.73;9.02;;;6.90;99.90;;;;;;5016589;28;20044;-83
2022/04/06 04:55:49;;;;;;;15.32;8.52;;;6.90;99.90;;;;;;5019801;28;20033;-83
2022/04/06 04:58:15;;;;;;;14.20;9.40;;;6.90;99.90;;;;;;5015675;28;20022;-83
2022/04/06 05:00:41;;;;;;;19.60;12.50;;;6.90;99.90;;;;;;5023939;28;20059;-84
2022/04/06 05:03:08;;;;;;;17.77;10.52;;;6.90;99.90;;;;;;5028987;28;20477;-84
2022/04/06 05:05:34;;;;;;;17.77;11.07;;;6.90;99.90;;;;;;5013277;28;20018;-83
2022/04/06 05:08:00;;;;;;;15.90;8.80;;;6.90;99.90;;;;;;5017537;28;20022;-85
2022/04/06 05:10:26;;;;;;;13.98;8.35;;;6.90;99.90;;;;;;5025021;28;20117;-84
2022/04/06 05:12:53;;;;;;;17.00;9.48;;;6.80;99.90;;;;;;5019014;28;20028;-84
2022/04/06 05:15:19;;;;;;;16.50;10.07;;;6.90;99.90;;;;;;5008620;28;20382;-84
2022/04/06 05:17:45;;;;;;;15.30;9.00;;;6.90;99.90;;;;;;5024862;28;20037;-83
2022/04/06 05:20:11;;;;;;;16.75;10.32;;;7.00;99.90;;;;;;5015736;28;20037;-83
2022/04/06 05:22:38;;;;;;;16.65;9.38;;;7.00;99.90;;;;;;5013636;28;20057;-83
2022/04/06 05:25:04;;;;;;;14.23;8.23;;;7.10;99.90;;;;;;5048719;28;20056;-84
2022/04/06 05:27:31;;;;;;;15.35;9.80;;;7.10;99.90;;;;;;5037925;28;20045;-82
2022/04/06 05:29:57;;;;;;;16.05;9.02;;;7.10;99.90;;;;;;5040175;28;20358;-83
2022/04/06 05:32:23;;;;;;;20.67;10.25;;;7.10;99.90;;;;;;5042845;28;20083;-83
2022/04/06 05:34:48;;;;;;;15.73;10.15;;;7.20;99.90;;;;;;5034864;28;20420;-83
2022/04/06 05:37:14;;;;;;;16.48;10.73;;;7.20;99.90;;;;;;5036344;28;20505;-83
2022/04/06 05:39:40;;;;;;;16.20;9.63;;;7.10;99.90;;;;;;5037896;28;20035;-84
2022/04/06 05:42:06;;;;;;;14.98;8.80;;;7.10;99.90;;;;;;5042777;28;20029;-84
2022/04/06 05:44:32;;;;;;;15.35;9.10;;;7.20;99.90;;;;;;5037521;28;20042;-84
2022/04/06 05:46:57;;;;;;;15.02;9.15;;;7.20;99.90;;;;;;5031627;28;20060;-84
2022/04/06 05:49:23;;;;;;;14.98;9.40;;;7.20;99.90;;;;;;5028678;28;20107;-83
2022/04/06 05:51:49;;;;;;;12.55;8.98;;;7.20;99.90;;;;;;5052070;28;20055;-83
2022/04/06 05:54:14;;;;;;;16.58;10.20;;;7.20;99.90;;;;;;5036346;28;20112;-83
2022/04/06 05:56:40;;;;;;;14.15;9.45;;;7.20;99.90;;;;;;5045232;28;20037;-83
2022/04/06 05:59:06;;;;;;;17.85;8.85;;;7.30;99.90;;;;;;5022744;28;20030;-84
2022/04/06 06:01:32;;;;;;;13.05;8.68;;;7.30;99.90;;;;;;5040079;28;20037;-83
2022/04/06 06:03:57;;;;;;;16.17;10.20;;;7.30;99.90;;;;;;5036426;28;20028;-85
2022/04/06 06:06:23;;;;;;;16.30;10.07;;;7.40;99.90;;;;;;5032791;28;20032;-84
2022/04/06 06:08:48;;;;;;;14.45;8.98;;;7.40;99.90;;;;;;5066060;28;20100;-84
2022/04/06 06:11:14;;;;;;;12.15;8.63;;;7.50;99.90;;;;;;5021424;28;20030;-85
2022/04/06 06:13:40;;;;;;;14.35;9.85;;;7.70;99.90;;;;;;5037175;28;20029;-83
2022/04/06 06:16:06;;;;;;;14.35;8.77;;;7.80;99.90;;;;;;5043515;28;20055;-84
2022/04/06 06:18:31;;;;;;;16.65;11.13;;;8.00;99.90;;;;;;5040408;28;20038;-84
2022/04/06 06:21:00;;;;;;;14.90;8.63;;;8.10;99.90;;;;;;5026008;28;20048;-84
2022/04/06 06:23:29;;;;;;;14.82;9.63;;;8.10;99.90;;;;;;5032755;28;20036;-84
2022/04/06 06:25:54;;;;;;;13.05;8.30;;;8.20;99.90;;;;;;5044047;28;20025;-84
2022/04/06 06:28:20;;;;;;;15.32;9.25;;;8.40;99.90;;;;;;5049239;28;20029;-83
2022/04/06 06:30:46;;;;;;;15.68;8.30;;;8.50;99.90;;;;;;5025944;28;20029;-84
2022/04/06 06:33:13;;;;;;;17.17;9.90;;;8.50;99.90;;;;;;5018897;28;20485;-84
2022/04/06 06:35:39;;;;;;;19.65;9.85;;;8.30;99.90;;;;;;5017425;28;20026;-84
2022/04/06 06:38:05;;;;;;;13.60;8.73;;;8.40;99.90;;;;;;5036005;28;20071;-84
2022/04/06 06:40:31;;;;;;;16.13;9.77;;;8.50;99.90;;;;;;5033534;28;20037;-84
2022/04/06 06:42:56;;;;;;;15.73;8.90;;;8.60;99.90;;;;;;5030156;28;20037;-83
2022/04/06 06:45:22;;;;;;;12.40;7.85;;;8.80;99.90;;;;;;5031913;28;20511;-84
2022/04/06 06:47:48;;;;;;;18.05;9.30;;;8.60;99.90;;;;;;5006083;28;20033;-84
2022/04/06 06:50:16;;;;;;;14.13;8.13;;;8.70;99.90;;;;;;5030243;28;20033;-84
2022/04/06 06:52:41;;;;;;;15.65;8.65;;;8.50;99.90;;;;;;5041564;28;20025;-84
2022/04/06 06:55:08;;;;;;;14.60;9.13;;;8.80;99.90;;;;;;5046262;28;20032;-85
2022/04/06 06:57:34;;;;;;;15.18;8.18;;;8.80;99.90;;;;;;5028377;28;20034;-84
2022/04/06 07:00:00;;;;;;;12.25;7.93;;;8.90;99.90;;;;;;5020268;28;20029;-83
2022/04/06 07:02:26;;;;;;;16.20;8.57;;;8.90;99.90;;;;;;5032980;28;20034;-84
2022/04/06 07:04:52;;;;;;;12.90;8.40;;;8.90;99.90;;;;;;5023989;28;20472;-85
2022/04/06 07:07:17;;;;;;;11.93;7.88;;;8.90;99.90;;;;;;5054321;28;20040;-84
2022/04/06 07:09:43;;;;;;;11.55;7.78;;;9.10;99.90;;;;;;5033534;28;20088;-85
2022/04/06 07:12:10;;;;;;;12.20;7.90;;;9.00;99.90;;;;;;5036479;28;20435;-83
2022/04/06 07:14:36;;;;;;;13.18;8.07;;;9.10;99.90;;;;;;5035807;28;20519;-84
2022/04/06 07:17:02;;;;;;;14.43;8.25;;;9.10;99.90;;;;;;5048938;28;20037;-84
2022/04/06 07:19:28;;;;;;;11.23;7.65;;;9.10;99.90;;;;;;5041423;28;20036;-84
2022/04/06 07:21:54;;;;;;;11.57;7.63;;;9.20;99.90;;;;;;5024763;28;20029;-85
2022/04/06 07:24:19;;;;;;;9.18;6.10;;;9.00;99.90;;;;;;5057757;28;20064;-84
2022/04/06 07:26:45;;;;;;;11.20;5.80;;;9.10;99.90;;;;;;5057225;28;20029;-84
2022/04/06 07:29:15;;;;;;;10.77;6.13;;;9.30;99.90;;;;;;5058061;28;20084;-84
2022/04/06 07:31:44;;;;;;;12.20;6.55;;;9.50;99.90;;;;;;5044772;28;20045;-84
2022/04/06 07:34:10;;;;;;;10.48;5.38;;;9.80;99.90;;;;;;5034138;28;20042;-85
2022/04/06 07:36:37;;;;;;;9.35;6.32;;;9.90;99.90;;;;;;5034180;28;20037;-85
2022/04/06 07:39:06;;;;;;;8.05;5.10;;;10.10;99.90;;;;;;5030748;28;20036;-84
2022/04/06 07:41:33;;;;;;;7.78;4.40;;;10.00;99.90;;;;;;5075029;28;20052;-84
2022/04/06 07:44:00;;;;;;;6.57;4.72;;;10.00;99.90;;;;;;5033668;28;20034;-84
2022/04/06 07:46:26;;;;;;;6.78;4.05;;;10.10;99.90;;;;;;5037163;28;20384;-85
2022/04/06 07:48:51;;;;;;;6.18;4.20;;;10.20;99.90;;;;;;5015407;28;20034;-84
2022/04/06 07:51:17;;;;;;;6.47;4.40;;;10.20;99.90;;;;;;5040964;28;20092;-84
2022/04/06 07:53:43;;;;;;;6.85;4.20;;;10.40;99.90;;;;;;5041349;28;20061;-84
2022/04/06 07:56:09;;;;;;;7.03;4.53;;;10.60;99.90;;;;;;5034064;28;20032;-82
2022/04/06 07:58:35;;;;;;;6.88;4.57;;;10.60;99.90;;;;;;5040830;28;20039;-85
2022/04/06 08:01:05;;;;;;;7.07;4.72;;;10.60;99.90;;;;;;5030315;28;20464;-84
2022/04/06 08:03:31;;;;;;;6.82;4.25;;;10.60;99.90;;;;;;5007958;28;20064;-85
2022/04/06 08:05:56;;;;;;;6.25;3.47;;;10.70;99.90;;;;;;5032281;28;20029;-85
2022/04/06 08:08:22;;;;;;;6.28;3.65;;;10.50;99.90;;;;;;5022000;28;20079;-84
2022/04/06 08:10:48;;;;;;;5.00;3.22;;;10.50;99.90;;;;;;5018098;28;20032;-85
2022/04/06 08:13:14;;;;;;;4.90;3.28;;;10.50;99.90;;;;;;5026242;28;20380;-84
2022/04/06 08:15:40;;;;;;;5.18;3.33;;;10.70;99.90;;;;;;5017539;28;20057;-84
2022/04/06 08:18:06;;;;;;;5.97;3.42;;;10.70;99.90;;;;;;5045529;28;20021;-85
2022/04/06 08:20:32;;;;;;;5.68;2.88;;;10.80;99.90;;;;;;5031202;28;20480;-85
2022/04/06 08:22:59;;;;;;;5.90;3.22;;;10.90;99.60;;;;;;5038428;28;20029;-84
2022/04/06 08:25:25;;;;;;;5.40;3.28;;;10.70;99.90;;;;;;5036846;28;20048;-85
2022/04/06 08:27:51;;;;;;;5.88;3.83;;;10.80;99.90;;;;;;5034422;28;20025;-85
2022/04/06 08:30:19;;;;;;;5.68;3.38;;;10.90;99.80;;;;;;5039927;28;20018;-83
2022/04/06 08:32:45;;;;;;;4.75;3.67;;;10.90;99.90;;;;;;5050445;28;20041;-84
2022/04/06 08:35:12;;;;;;;4.75;2.67;;;10.90;99.20;;;;;;5036704;28;20064;-84
2022/04/06 08:37:39;;;;;;;3.35;2.63;;;10.90;99.90;;;;;;5024376;28;20037;-85
2022/04/06 08:40:10;;;;;;;6.65;3.28;;;11.10;97.20;;;;;;5010790;28;20378;-84
2022/04/06 08:42:37;;;;;;;3.70;2.55;;;11.10;98.30;;;;;;5012337;28;20495;-83
2022/04/06 08:45:04;;;;;;;3.75;2.60;;;11.20;98.50;;;;;;5040911;28;20075;-84
2022/04/06 08:47:34;;;;;;;4.97;2.83;;;11.30;96.10;;;;;;5025597;28;20034;-84
2022/04/06 08:50:03;;;;;;;4.80;3.22;;;11.30;97.50;;;;;;5042037;28;20043;-84
2022/04/06 08:52:32;;;;;;;5.32;3.35;;;10.80;97.00;;;;;;5050313;28;20636;-84
2022/04/06 08:54:58;;;;;;;4.47;3.13;;;11.20;99.10;;;;;;5049144;28;20822;-84
2022/04/06 08:57:25;;;;;;;3.97;2.70;;;11.40;95.20;;;;;;5050004;28;20041;-84
2022/04/06 08:59:51;;;;;;;4.22;2.88;;;11.60;98.70;;;;;;5034539;28;20040;-84
2022/04/06 09:02:18;;;;;;;3.83;2.75;;;11.90;96.30;;;;;;5026450;28;20042;-85
2022/04/06 09:04:48;;;;;;;5.13;3.10;;;11.80;96.20;;;;;;5027368;28;20391;-84
2022/04/06 09:07:14;;;;;;;4.28;2.83;;;11.80;96.20;;;;;;5040842;28;20032;-84
2022/04/06 09:09:39;;;;;;;5.47;2.97;;;11.60;95.80;;;;;;5014251;28;20042;-84
2022/04/06 09:12:07;;;;;;;5.38;3.03;;;11.40;96.90;;;;;;5026822;28;20116;-84
2022/04/06 09:14:36;;;;;;;4.82;3.33;;;11.60;95.80;;;;;;5031246;28;20135;-84
2022/04/06 09:17:06;;;;;;;4.78;3.45;;;12.00;96.90;;;;;;5048644;28;20033;-85
2022/04/06 09:19:37;;;;;;;6.00;3.60;;;12.00;93.60;;;;;;5024062;28;20043;-84
2022/04/06 09:22:06;;;;;;;4.50;2.90;;;11.90;94.90;;;;;;5048672;28;20044;-83
2022/04/06 09:24:31;;;;;;;5.13;3.50;;;12.10;94.90;;;;;;5030327;28;20029;-83
2022/04/06 09:26:59;;;;;;;6.32;3.20;;;12.70;95.20;;;;;;5039362;28;20030;-83
2022/04/06 09:29:25;;;;;;;5.25;3.20;;;12.40;93.50;;;;;;5023739;28;20021;-85
2022/04/06 09:31:52;;;;;;;4.80;3.47;;;12.40;94.10;;;;;;5041587;28;20050;-84
2022/04/06 09:34:22;;;;;;;5.25;3.80;;;12.00;92.90;;;;;;5027717;28;20072;-84
2022/04/06 09:36:48;;;;;;;4.55;3.30;;;12.50;93.80;;;;;;5049162;28;20033;-85
2022/04/06 09:39:13;;;;;;;4.53;3.33;;;12.30;93.50;;;;;;5031446;28;20030;-83
2022/04/06 09:41:59;;;;;;;5.10;3.35;;;12.60;92.60;;;;;;5021089;28;20057;-83
2022/04/06 09:50:30;;;;;;;5.75;3.55;;;12.90;93.00;;;;;;5022697;28;20067;-84
2022/04/06 09:52:57;;;;;;;5.03;3.50;;;13.00;92.00;;;;;;5037133;28;20087;-85
2022/04/06 09:55:24;;;;;;;5.45;4.65;;;12.80;92.60;;;;;;5019522;28;20037;-85
2022/04/06 09:57:55;;;;;;;5.45;3.80;;;12.80;92.80;;;;;;5039057;28;20040;-84
2022/04/06 10:00:29;;;;;;;4.47;3.58;;;13.10;92.00;;;;;;5039374;28;20752;-83
2022/04/06 10:03:13;;;;;;;6.03;3.95;;;13.30;90.60;;;;;;5040561;28;20044;-83
2022/04/06 10:05:42;;;;;;;5.28;4.00;;;13.30;91.30;;;;;;5032211;28;20140;-86
2022/04/06 10:08:09;;;;;;;5.28;4.20;;;13.40;88.30;;;;;;5041853;28;20032;-86
2022/04/06 10:10:40;;;;;;;4.63;3.55;;;13.40;87.10;;;;;;5033835;28;20112;-86
2022/04/06 10:13:10;;;;;;;7.22;3.70;;;13.70;83.80;;;;;;5040617;28;20079;-85
2022/04/06 10:15:39;;;;;;;4.95;3.50;;;13.90;90.50;;;;;;5030762;28;20033;-86
2022/04/06 10:18:05;;;;;;;8.52;3.70;;;14.30;89.00;;;;;;5038735;28;20029;-86
2022/04/06 10:20:48;;;;;;;8.75;3.42;;;14.50;87.70;;;;;;5032434;28;20064;-86
2022/04/06 10:23:37;;;;;;;7.00;3.90;;;14.30;83.40;;;;;;5033109;28;20025;-85
2022/04/06 10:26:21;;;;;;;5.43;4.07;;;14.50;82.60;;;;;;5038551;28;20021;-85
2022/04/06 10:28:49;;;;;;;4.43;3.60;;;13.70;79.10;;;;;;5035981;28;20029;-86
2022/04/06 10:31:24;;;;;;;5.80;4.15;;;14.40;80.10;;;;;;5043613;28;20760;-85
2022/04/06 10:33:51;;;;;;;5.30;4.15;;;14.70;82.10;;;;;;5031811;28;20048;-86
2022/04/06 10:36:20;;;;;;;5.22;4.28;;;14.90;76.10;;;;;;5030738;28;20408;-85
2022/04/06 10:39:08;;;;;;;5.63;4.17;;;15.00;76.30;;;;;;5034667;28;20037;-86
2022/04/06 10:41:38;;;;;;;6.25;4.32;;;15.50;78.20;;;;;;5027788;28;20091;-85
2022/04/06 10:44:04;;;;;;;6.00;3.63;;;15.70;71.70;;;;;;5043636;28;20039;-86
2022/04/06 10:46:39;;;;;;;4.05;3.65;;;15.90;71.30;;;;;;5037097;28;20303;-86
2022/04/06 10:49:09;;;;;;;6.38;4.15;;;15.50;68.70;;;;;;5045785;28;20029;-86
2022/04/06 10:51:38;;;;;;;;;;;15.70;73.10;;;;;;5036948;28;20029;-84
2022/04/06 10:54:13;;;;;;;4.38;3.63;;;16.40;75.60;;;;;;5042504;28;19917;-86
2022/04/06 10:56:52;;;;;;;3.80;3.22;;;16.40;65.00;;;;;;5039723;28;20408;-86
2022/04/06 10:59:22;;;;;;;4.95;3.30;;;16.10;63.80;;;;;;5033722;28;20116;-86
2022/04/06 11:01:49;;;;;;;3.03;2.58;;;17.10;62.00;;;;;;5037942;28;20060;-86
2022/04/06 11:04:22;;;;;;;2.70;2.33;;;17.50;60.90;;;;;;5044350;28;20451;-86
2022/04/06 11:06:49;;;;;;;3.03;2.30;;;17.80;56.00;;;;;;5039687;28;20108;-85
2022/04/06 11:12:14;;;;;;;4.82;2.58;;;17.50;57.00;;;;;;5044707;28;20112;-85
2022/04/06 11:14:42;;;;;;;2.45;1.92;;;17.50;57.70;;;;;;5036742;28;20075;-86
2022/04/06 11:17:45;;;;;;;3.20;2.30;;;17.10;57.70;;;;;;5032496;28;20037;-86
2022/04/06 11:20:11;;;;;;;3.10;2.40;;;17.40;54.20;;;;;;5064845;28;20029;-86
2022/04/06 11:22:57;;;;;;;3.95;2.50;;;17.70;55.00;;;;;;5042942;28;20041;-86
2022/04/06 11:25:26;;;;;;;3.83;2.00;;;17.30;52.10;;;;;;5050370;28;20037;-85
2022/04/06 11:27:54;;;;;;;3.85;2.53;;;17.60;56.20;;;;;;5041835;28;20025;-86
2022/04/06 11:30:23;;;;;;;4.55;2.83;;;17.40;54.60;;;;;;5040255;28;20022;-87
2022/04/06 11:32:55;;;;;;;3.28;2.72;;;16.60;54.30;;;;;;5040136;28;20359;-86
2022/04/06 11:35:27;;;;;;;3.13;2.47;;;17.10;60.30;;;;;;5036552;28;20056;-86
2022/04/06 11:37:52;;;;;;;2.83;2.08;;;17.10;55.00;;;;;;5033652;28;20029;-86
2022/04/06 11:40:22;;;;;;;5.57;2.35;;;17.90;53.20;;;;;;5040813;28;20749;-85
2022/04/06 11:42:53;;;;;;;2.85;2.20;;;18.00;54.00;;;;;;5031008;28;20072;-84
2022/04/06 11:45:30;;;;;;;2.38;2.17;;;18.00;51.80;;;;;;5031466;28;20513;-86
2022/04/06 11:47:58;;;;;;;2.42;1.90;;;19.10;51.40;;;;;;5025027;28;20104;-85
2022/04/06 11:50:32;;;;;;;3.00;1.80;;;19.10;50.20;;;;;;5020208;28;20028;-87
2022/04/06 11:53:06;;;;;;;2.08;1.77;;;19.60;46.20;;;;;;5028891;28;20040;-85
2022/04/06 11:55:39;;;;;;;2.75;1.60;;;18.70;47.90;;;;;;5035556;28;20038;-85
2022/04/06 11:58:05;;;;;;;2.85;1.95;;;19.70;48.70;;;;;;5022771;28;20032;-86
2022/04/06 12:00:33;;;;;;;2.20;1.70;;;19.20;45.10;;;;;;5038253;28;20113;-85
2022/04/06 12:02:58;;;;;;;2.00;1.80;;;19.10;46.00;;;;;;5029303;28;20512;-88
2022/04/06 12:05:25;;;;;;;1.90;1.52;;;18.40;46.50;;;;;;5034981;28;20030;-89
2022/04/06 12:08:12;;;;;;;2.47;1.60;;;18.70;48.00;;;;;;5056840;28;20017;-88
2022/04/06 12:10:50;;;;;;;2.95;1.48;;;19.20;47.20;;;;;;5052229;28;20507;-88
2022/04/06 12:13:18;;;;;;;1.73;1.45;;;19.30;44.60;;;;;;5018134;28;20497;-89
2022/04/06 12:15:46;;;;;;;2.60;1.30;;;18.30;45.80;;;;;;5039729;28;20033;-89
2022/04/06 12:18:12;;;;;;;1.20;1.10;;;17.80;49.20;;;;;;5063190;28;20040;-86
2022/04/06 12:20:37;;;;;;;1.60;1.50;;;18.70;46.50;;;;;;5060643;28;20031;-89
2022/04/06 12:23:05;;;;;;;2.92;1.60;;;19.50;45.10;;;;;;5037685;28;20029;-90
2022/04/06 12:25:33;;;;;;;2.85;1.50;;;19.20;43.90;;;;;;5041182;28;20025;-90
2022/04/06 12:28:11;;;;;;;1.73;1.25;;;19.80;45.30;;;;;;5025296;28;20033;-89
2022/04/06 12:30:51;;;;;;;1.83;1.55;;;19.60;42.90;;;;;;5054952;28;20044;-89
2022/04/06 12:33:47;;;;;;;2.28;1.77;;;19.00;44.30;;;;;;5065905;28;20039;-88
2022/04/06 12:36:24;;;;;;;2.05;1.40;;;20.90;45.50;;;;;;5042327;28;20048;-90
2022/04/06 12:39:16;;;;;;;4.22;1.30;;;21.60;40.80;;;;;;5033072;28;20036;-91
2022/04/06 12:42:04;;;;;;;2.83;1.60;;;20.00;41.00;;;;;;5029017;28;20072;-90
2022/04/06 12:44:32;;;;;;;1.60;1.30;;;20.10;43.10;;;;;;5026025;28;20033;-91
2022/04/06 12:46:59;;;;;;;1.80;1.70;;;21.40;42.90;;;;;;5015494;28;20052;-91
2022/04/06 12:49:35;;;;;;;1.95;1.17;;;19.50;41.70;;;;;;5038982;28;20480;-90
2022/04/06 12:52:07;;;;;;;3.05;1.38;;;20.20;45.10;;;;;;5041251;28;20044;-90
2022/04/06 12:54:35;;;;;;;1.67;1.40;;;20.50;41.40;;;;;;5038865;28;20021;-91
2022/04/06 12:57:20;;;;;;;2.45;1.20;;;21.20;40.40;;;;;;5028809;28;20030;-91
2022/04/06 12:59:55;;;;;;;1.30;1.20;;;22.10;39.80;;;;;;5044544;28;20078;-90